createdAt,value
2022-10-15T00:00:15.121Z,31.27
2022-10-15T00:03:05.811Z,30.17
2022-10-15T00:05:37.597Z,29.70
2022-10-15T00:08:08.318Z,30.95
2022-10-15T00:10:38.801Z,29.65
2022-10-15T00:13:08.107Z,29.15
2022-10-15T00:15:38.855Z,30.60
2022-10-15T00:18:09.888Z,30.27
2022-10-15T00:20:42.249Z,30.30
2022-10-15T00:23:11.790Z,32.50
2022-10-15T00:25:42.286Z,33.78
2022-10-15T00:28:11.603Z,32.65
2022-10-15T00:30:41.193Z,31.63
2022-10-15T00:33:11.863Z,29.25
2022-10-15T00:35:41.412Z,30.95
2022-10-15T00:38:10.664Z,29.27
2022-10-15T00:40:43.125Z,30.33
2022-10-15T00:43:13.323Z,29.73
2022-10-15T00:45:42.750Z,30.45
2022-10-15T00:48:13.491Z,31.95
2022-10-15T00:50:43.067Z,27.23
2022-10-15T00:53:12.599Z,29.98
2022-10-15T00:55:44.332Z,31.77
2022-10-15T00:58:17.444Z,32.28
2022-10-15T01:00:47.634Z,30.67
2022-10-15T01:03:18.562Z,30.23
2022-10-15T01:05:49.090Z,29.98
2022-10-15T01:08:19.029Z,31.15
2022-10-15T01:10:58.360Z,32.30
2022-10-15T01:13:37.998Z,31.05
2022-10-15T01:18:58.041Z,34.45
2022-10-15T01:21:35.177Z,33.88
2022-10-15T01:24:40.279Z,35.45
2022-10-15T01:27:28.846Z,36.20
2022-10-15T01:30:24.832Z,35.20
2022-10-15T01:33:18.526Z,37.05
2022-10-15T01:35:51.504Z,35.55
2022-10-15T01:38:31.430Z,37.22
2022-10-15T01:41:09.384Z,37.53
2022-10-15T01:43:45.171Z,42.72
2022-10-15T01:46:48.037Z,38.13
2022-10-15T01:49:28.989Z,44.05
2022-10-15T01:52:01.413Z,39.50
2022-10-15T01:54:32.538Z,41.17
2022-10-15T01:57:04.268Z,47.17
2022-10-15T01:59:35.489Z,44.45
2022-10-15T02:02:06.402Z,44.83
2022-10-15T02:04:35.693Z,44.00
2022-10-15T02:07:08.371Z,42.78
2022-10-15T02:09:47.186Z,42.97
2022-10-15T02:12:33.245Z,43.55
2022-10-15T02:15:10.318Z,54.38
2022-10-15T02:20:20.980Z,48.47
2022-10-15T02:22:55.570Z,42.42
2022-10-15T02:25:27.123Z,40.20
2022-10-15T02:27:58.993Z,36.92
2022-10-15T02:35:55.996Z,39.22
2022-10-15T02:38:30.086Z,41.65
2022-10-15T02:40:59.990Z,40.58
2022-10-15T02:43:30.014Z,38.78
2022-10-15T02:45:59.384Z,38.05
2022-10-15T02:48:28.764Z,36.53
2022-10-15T02:50:59.682Z,37.88
2022-10-15T02:53:28.912Z,38.67
2022-10-15T02:55:58.595Z,37.78
2022-10-15T02:58:29.246Z,37.00
2022-10-15T03:00:59.188Z,36.20
2022-10-15T03:03:28.748Z,35.28
2022-10-15T03:05:59.626Z,41.05
2022-10-15T03:08:28.948Z,41.08
2022-10-15T03:11:01.059Z,38.45
2022-10-15T03:13:30.951Z,35.50
2022-10-15T03:16:00.519Z,37.70
2022-10-15T03:18:29.942Z,42.45
2022-10-15T03:21:01.497Z,38.72
2022-10-15T03:23:31.378Z,42.72
2022-10-15T03:26:09.895Z,39.28
2022-10-15T03:28:40.394Z,44.67
2022-10-15T03:31:09.874Z,38.83
2022-10-15T03:33:39.245Z,36.40
2022-10-15T03:36:11.578Z,36.38
2022-10-15T03:38:40.975Z,36.42
2022-10-15T03:41:15.073Z,38.33
2022-10-15T03:43:45.297Z,37.25
2022-10-15T03:46:15.841Z,37.40
2022-10-15T03:48:51.071Z,37.40
2022-10-15T03:51:25.578Z,36.83
2022-10-15T03:54:04.603Z,35.38
2022-10-15T03:56:36.230Z,35.72
2022-10-15T03:59:21.301Z,38.90
2022-10-15T04:01:58.816Z,37.90
2022-10-15T04:04:28.927Z,35.80
2022-10-15T04:06:59.779Z,35.65
2022-10-15T04:09:30.759Z,33.05
2022-10-15T04:12:20.445Z,32.03
2022-10-15T04:14:50.286Z,33.65
2022-10-15T04:17:19.914Z,32.95
2022-10-15T04:19:49.539Z,32.08
2022-10-15T04:22:21.363Z,38.67
2022-10-15T04:24:55.286Z,35.70
2022-10-15T04:27:31.326Z,36.45
2022-10-15T04:30:19.673Z,34.88
2022-10-15T04:35:25.584Z,30.73
2022-10-15T04:38:04.195Z,33.60
2022-10-15T04:41:01.808Z,32.05
2022-10-15T04:43:41.863Z,36.83
2022-10-15T04:46:13.874Z,34.97
2022-10-15T04:48:43.542Z,35.97
2022-10-15T04:51:18.222Z,31.15
2022-10-15T04:54:04.346Z,31.45
2022-10-15T04:56:34.617Z,33.95
2022-10-15T04:59:07.578Z,37.00
2022-10-15T05:01:47.162Z,38.50
2022-10-15T05:04:17.253Z,36.88
2022-10-15T05:06:46.531Z,35.33
2022-10-15T05:09:21.706Z,33.83
2022-10-15T05:11:53.366Z,33.10
2022-10-15T05:14:22.767Z,33.97
2022-10-15T05:17:07.395Z,36.90
2022-10-15T05:22:19.511Z,38.08
2022-10-15T05:24:55.571Z,35.97
2022-10-15T05:27:30.194Z,35.22
2022-10-15T05:29:59.657Z,33.47
2022-10-15T05:32:37.791Z,36.53
2022-10-15T05:35:08.899Z,39.60
2022-10-15T05:37:56.370Z,36.78
2022-10-15T05:40:27.830Z,36.67
2022-10-15T05:43:15.441Z,37.75
2022-10-15T05:45:44.955Z,36.08
2022-10-15T05:48:15.282Z,42.95
2022-10-15T05:50:45.014Z,40.30
2022-10-15T05:53:21.478Z,43.05
2022-10-15T05:55:56.612Z,38.40
2022-10-15T05:58:33.285Z,40.58
2022-10-15T06:01:06.078Z,42.38
2022-10-15T06:03:36.057Z,42.53
2022-10-15T06:06:05.871Z,42.05
2022-10-15T06:08:38.147Z,39.13
2022-10-15T06:11:09.705Z,41.67
2022-10-15T06:13:40.777Z,41.67
2022-10-15T06:16:10.835Z,37.78
2022-10-15T06:18:40.228Z,43.28
2022-10-15T06:21:13.389Z,41.60
2022-10-15T06:23:42.847Z,45.10
2022-10-15T06:26:14.086Z,47.30
2022-10-15T06:28:44.499Z,40.72
2022-10-15T06:31:13.773Z,40.03
2022-10-15T06:33:43.234Z,39.42
2022-10-15T06:36:14.455Z,37.25
2022-10-15T06:38:44.948Z,39.10
2022-10-15T06:41:16.684Z,38.92
2022-10-15T06:43:46.254Z,42.33
2022-10-15T06:46:16.382Z,39.67
2022-10-15T06:48:45.697Z,40.00
2022-10-15T06:51:15.061Z,44.70
2022-10-15T06:53:52.046Z,45.00
2022-10-15T06:56:22.758Z,41.20
2022-10-15T06:58:52.273Z,43.17
2022-10-15T07:01:21.596Z,41.42
2022-10-15T07:03:51.651Z,39.72
2022-10-15T07:06:21.179Z,38.13
2022-10-15T07:08:50.745Z,39.42
2022-10-15T07:11:21.306Z,38.65
2022-10-15T07:13:50.885Z,38.30
2022-10-15T07:16:20.093Z,37.17
2022-10-15T07:18:50.213Z,37.42
2022-10-15T07:21:19.693Z,39.88
2022-10-15T07:23:49.066Z,37.67
2022-10-15T07:26:18.515Z,40.47
2022-10-15T07:28:49.444Z,38.42
2022-10-15T07:31:18.723Z,35.90
2022-10-15T07:33:47.991Z,35.42
2022-10-15T07:36:17.975Z,36.47
2022-10-15T07:38:47.227Z,37.05
2022-10-15T07:41:16.561Z,35.58
2022-10-15T07:43:46.540Z,34.83
2022-10-15T07:46:17.198Z,33.45
2022-10-15T07:48:46.627Z,34.85
2022-10-15T07:53:50.565Z,34.58
2022-10-15T07:56:20.159Z,31.77
2022-10-15T07:58:52.022Z,33.47
2022-10-15T08:01:23.304Z,33.33
2022-10-15T08:03:52.571Z,32.10
2022-10-15T08:06:22.159Z,30.85
2022-10-15T08:08:51.812Z,33.40
2022-10-15T08:11:21.087Z,30.67
2022-10-15T08:13:50.504Z,32.80
2022-10-15T08:16:21.173Z,30.05
2022-10-15T08:19:00.950Z,30.95
2022-10-15T08:21:30.260Z,30.27
2022-10-15T08:24:00.856Z,29.17
2022-10-15T08:26:36.202Z,28.88
2022-10-15T08:29:06.020Z,31.52
2022-10-15T08:31:37.158Z,31.02
2022-10-15T08:34:08.401Z,29.58
2022-10-15T08:36:37.854Z,28.40
2022-10-15T08:39:09.256Z,26.08
2022-10-15T08:41:42.072Z,28.42
2022-10-15T08:44:21.655Z,27.77
2022-10-15T08:46:57.570Z,31.40
2022-10-15T08:49:38.716Z,29.80
2022-10-15T08:52:18.253Z,28.23
2022-10-15T08:54:48.219Z,29.23
2022-10-15T08:57:27.954Z,27.92
2022-10-15T09:00:03.891Z,25.85
2022-10-15T09:02:41.025Z,27.95
2022-10-15T09:05:31.450Z,29.55
2022-10-15T09:08:08.841Z,27.15
2022-10-15T09:10:44.917Z,29.90
2022-10-15T09:13:23.327Z,26.90
2022-10-15T09:15:57.341Z,28.58
2022-10-15T09:18:32.004Z,26.58
2022-10-15T09:21:03.646Z,27.13
2022-10-15T09:23:36.084Z,25.83
2022-10-15T09:26:17.746Z,25.40
2022-10-15T09:28:53.455Z,25.92
2022-10-15T09:31:29.214Z,25.13
2022-10-15T09:34:06.673Z,25.40
2022-10-15T09:36:42.605Z,25.42
2022-10-15T09:39:46.057Z,25.45
2022-10-15T09:42:23.538Z,24.48
2022-10-15T09:44:55.954Z,27.65
2022-10-15T09:47:27.524Z,26.13
2022-10-15T09:50:06.135Z,25.80
2022-10-15T09:53:01.659Z,25.58
2022-10-15T09:55:42.425Z,25.57
2022-10-15T09:58:19.293Z,25.25
2022-10-15T10:00:57.897Z,25.08
2022-10-15T10:03:29.433Z,25.52
2022-10-15T10:06:06.225Z,28.35
2022-10-15T10:08:42.011Z,26.40
2022-10-15T10:11:12.962Z,26.83
2022-10-15T10:13:46.965Z,26.45
2022-10-15T10:16:18.401Z,26.88
2022-10-15T10:19:11.203Z,24.20
2022-10-15T10:21:43.882Z,26.58
2022-10-15T10:24:23.559Z,25.48
2022-10-15T10:26:53.144Z,25.95
2022-10-15T10:29:39.544Z,26.40
2022-10-15T10:32:14.475Z,27.00
2022-10-15T10:34:50.172Z,29.38
2022-10-15T10:37:24.404Z,27.35
2022-10-15T10:39:55.907Z,27.00
2022-10-15T10:42:38.184Z,28.25
2022-10-15T10:45:19.929Z,27.77
2022-10-15T10:47:49.812Z,25.85
2022-10-15T10:50:33.280Z,24.15
2022-10-15T10:53:22.877Z,24.33
2022-10-15T10:55:55.273Z,25.25
2022-10-15T10:58:32.581Z,23.48
2022-10-15T11:01:02.633Z,23.63
2022-10-15T11:03:38.161Z,26.40
2022-10-15T11:06:19.989Z,25.63
2022-10-15T11:09:04.340Z,24.80
2022-10-15T11:11:45.278Z,24.17
2022-10-15T11:14:28.352Z,24.85
2022-10-15T11:17:06.859Z,23.92
2022-10-15T11:22:48.948Z,23.60
2022-10-15T11:25:30.188Z,22.50
2022-10-15T11:28:15.866Z,23.55
2022-10-15T11:30:51.653Z,23.50
2022-10-15T11:33:43.327Z,24.90
2022-10-15T11:36:37.584Z,25.58
2022-10-15T11:39:26.745Z,22.63
2022-10-15T11:42:07.923Z,26.83
2022-10-15T11:44:57.356Z,25.25
2022-10-15T11:47:37.611Z,24.00
2022-10-15T11:50:20.852Z,23.00
2022-10-15T11:53:05.973Z,22.00
2022-10-15T11:55:42.613Z,22.42
2022-10-15T11:58:23.220Z,19.88
2022-10-15T12:00:57.434Z,19.77
2022-10-15T12:03:29.952Z,19.95
2022-10-15T12:06:05.038Z,18.80
2022-10-15T12:08:38.705Z,19.75
2022-10-15T12:11:22.180Z,21.00
2022-10-15T12:14:00.170Z,21.10
2022-10-15T12:16:39.811Z,22.25
2022-10-15T12:19:17.356Z,20.40
2022-10-15T12:22:06.485Z,20.45
2022-10-15T12:24:57.458Z,20.27
2022-10-15T12:27:30.868Z,18.35
2022-10-15T12:30:27.911Z,19.10
2022-10-15T12:32:57.608Z,19.85
2022-10-15T12:35:36.331Z,17.90
2022-10-15T12:38:21.416Z,18.02
2022-10-15T12:41:03.507Z,18.33
2022-10-15T12:43:38.232Z,19.83
2022-10-15T12:46:11.925Z,20.13
2022-10-15T12:48:43.723Z,19.77
2022-10-15T12:51:43.148Z,18.42
2022-10-15T12:54:35.143Z,18.17
2022-10-15T12:57:26.214Z,18.77
2022-10-15T12:59:59.608Z,19.88
2022-10-15T13:02:38.536Z,20.00
2022-10-15T13:05:10.217Z,18.30
2022-10-15T13:07:42.413Z,19.70
2022-10-15T13:10:22.837Z,19.73
2022-10-15T13:12:56.549Z,19.13
2022-10-15T13:15:29.427Z,19.42
2022-10-15T13:18:06.088Z,20.83
2022-10-15T13:20:38.194Z,20.55
2022-10-15T13:23:28.877Z,18.80
2022-10-15T13:26:23.253Z,19.00
2022-10-15T13:28:55.215Z,19.58
2022-10-15T13:31:30.265Z,19.98
2022-10-15T13:34:08.301Z,20.75
2022-10-15T13:36:38.264Z,22.25
2022-10-15T13:39:09.643Z,19.50
2022-10-15T13:41:40.785Z,20.38
2022-10-15T13:44:23.355Z,19.83
2022-10-15T13:46:53.409Z,21.10
2022-10-15T13:49:26.588Z,20.88
2022-10-15T13:51:58.236Z,19.27
2022-10-15T13:54:32.061Z,21.40
2022-10-15T13:57:03.089Z,19.10
2022-10-15T13:59:33.117Z,19.60
2022-10-15T14:02:04.499Z,19.15
2022-10-15T14:04:35.408Z,19.02
2022-10-15T14:07:19.613Z,20.98
2022-10-15T14:09:49.319Z,19.60
2022-10-15T14:12:18.792Z,20.70
2022-10-15T14:14:49.455Z,19.73
2022-10-15T14:17:25.860Z,17.48
2022-10-15T14:20:25.756Z,18.45
2022-10-15T14:22:52.616Z,20.63
2022-10-15T14:25:26.081Z,18.50
2022-10-15T14:27:55.631Z,19.30
2022-10-15T14:30:31.396Z,19.63
2022-10-15T14:33:01.055Z,19.67
2022-10-15T14:35:35.203Z,19.60
2022-10-15T14:38:06.541Z,19.60
2022-10-15T14:40:35.841Z,20.35
2022-10-15T14:43:07.290Z,19.98
2022-10-15T14:45:42.781Z,18.75
2022-10-15T14:48:17.593Z,20.08
2022-10-15T14:50:48.521Z,19.42
2022-10-15T14:53:21.997Z,19.83
2022-10-15T14:55:54.628Z,22.00
2022-10-15T14:58:26.100Z,20.00
2022-10-15T15:01:00.665Z,21.50
2022-10-15T15:03:32.153Z,20.67
2022-10-15T15:06:02.828Z,22.17
2022-10-15T15:08:32.531Z,20.27
2022-10-15T15:11:04.103Z,19.73
2022-10-15T15:13:38.833Z,19.70
2022-10-15T15:16:10.672Z,22.00
2022-10-15T15:18:42.454Z,23.02
2022-10-15T15:21:21.219Z,21.92
2022-10-15T15:23:50.938Z,22.73
2022-10-15T15:26:20.191Z,21.58
2022-10-15T15:28:49.698Z,21.25
2022-10-15T15:31:20.212Z,23.70
2022-10-15T15:33:49.724Z,22.58
2022-10-15T15:36:23.763Z,24.13
2022-10-15T15:38:58.610Z,22.15
2022-10-15T15:41:28.278Z,22.17
2022-10-15T15:43:57.674Z,24.75
2022-10-15T15:46:27.095Z,24.52
2022-10-15T15:48:58.415Z,24.13
2022-10-15T15:51:32.003Z,23.88
2022-10-15T15:54:04.571Z,40.80
2022-10-15T15:56:35.014Z,27.60
2022-10-15T15:59:04.474Z,26.33
2022-10-15T16:01:33.787Z,23.17
2022-10-15T16:04:03.234Z,24.85
2022-10-15T16:06:33.866Z,28.45
2022-10-15T16:09:05.557Z,26.15
2022-10-15T16:11:35.258Z,24.00
2022-10-15T16:14:09.062Z,24.00
2022-10-15T16:16:38.743Z,26.88
2022-10-15T16:19:08.858Z,37.83
2022-10-15T16:21:39.589Z,41.83
2022-10-15T16:24:09.119Z,29.42
2022-10-15T16:26:38.347Z,56.83
2022-10-15T16:29:07.732Z,23.70
2022-10-15T16:31:37.646Z,26.85
2022-10-15T16:34:07.200Z,22.38
2022-10-15T16:36:36.669Z,27.92
2022-10-15T16:39:07.703Z,37.58
2022-10-15T16:41:37.064Z,26.30
2022-10-15T16:44:06.856Z,27.58
2022-10-15T16:46:36.587Z,29.05
2022-10-15T16:49:06.020Z,27.15
2022-10-15T16:51:37.402Z,26.40
2022-10-15T16:54:13.855Z,31.25
2022-10-15T16:56:43.103Z,24.00
2022-10-15T16:59:13.015Z,25.33
2022-10-15T17:01:42.382Z,24.25
2022-10-15T17:04:11.817Z,32.13
2022-10-15T17:06:41.186Z,29.33
2022-10-15T17:09:12.010Z,24.35
2022-10-15T17:11:43.424Z,26.27
2022-10-15T17:14:14.376Z,27.27
2022-10-15T17:16:44.983Z,28.30
2022-10-15T17:19:15.435Z,26.95
2022-10-15T17:21:47.079Z,27.10
2022-10-15T17:24:19.665Z,25.85
2022-10-15T17:26:49.961Z,26.77
2022-10-15T17:29:23.106Z,27.75
2022-10-15T17:31:52.785Z,27.88
2022-10-15T17:34:22.275Z,29.23
2022-10-15T17:36:52.389Z,32.70
2022-10-15T17:39:23.718Z,30.45
2022-10-15T17:41:53.160Z,31.65
2022-10-15T17:44:22.542Z,31.10
2022-10-15T17:46:52.852Z,32.17
2022-10-15T17:49:28.721Z,31.05
2022-10-15T17:51:57.957Z,28.13
2022-10-15T17:54:28.759Z,31.40
2022-10-15T17:56:58.251Z,34.58
2022-10-15T17:59:27.746Z,30.33
2022-10-15T18:01:59.808Z,33.10
2022-10-15T18:04:30.669Z,28.90
2022-10-15T18:07:00.338Z,30.38
2022-10-15T18:09:31.609Z,30.33
2022-10-15T18:12:02.915Z,29.83
2022-10-15T18:14:36.015Z,29.85
2022-10-15T18:17:06.136Z,31.55
2022-10-15T18:19:35.696Z,30.23
2022-10-15T18:22:04.983Z,30.15
2022-10-15T18:24:35.836Z,32.65
2022-10-15T18:27:07.075Z,31.30
2022-10-15T18:29:36.565Z,34.10
2022-10-15T18:32:06.156Z,34.83
2022-10-15T18:34:35.706Z,33.65
2022-10-15T18:37:04.971Z,31.20
2022-10-15T18:39:36.381Z,32.10
2022-10-15T18:42:05.752Z,33.70
2022-10-15T18:44:36.345Z,36.13
2022-10-15T18:47:05.585Z,38.53
2022-10-15T18:49:43.153Z,36.10
2022-10-15T18:52:21.882Z,38.30
2022-10-15T18:55:03.311Z,37.60
2022-10-15T18:57:34.733Z,35.58
2022-10-15T19:00:05.095Z,32.45
2022-10-15T19:02:34.452Z,42.83
2022-10-15T19:05:04.498Z,35.80
2022-10-15T19:07:33.764Z,40.25
2022-10-15T19:10:04.926Z,35.58
2022-10-15T19:12:34.112Z,33.17
2022-10-15T19:15:03.562Z,37.13
2022-10-15T19:17:32.918Z,36.50
2022-10-15T19:20:02.340Z,47.17
2022-10-15T19:22:33.233Z,41.08
2022-10-15T19:25:04.301Z,41.90
2022-10-15T19:27:34.328Z,39.38
2022-10-15T19:30:03.930Z,40.47
2022-10-15T19:32:33.282Z,42.15
2022-10-15T19:35:03.773Z,41.35
2022-10-15T19:37:35.101Z,39.03
2022-10-15T19:40:08.447Z,39.55
2022-10-15T19:42:37.950Z,37.63
2022-10-15T19:45:08.126Z,35.95
2022-10-15T19:47:38.888Z,37.38
2022-10-15T19:50:09.047Z,35.13
2022-10-15T19:52:38.345Z,35.10
2022-10-15T19:55:10.232Z,37.95
2022-10-15T19:57:39.865Z,35.28
2022-10-15T20:00:10.484Z,36.70
2022-10-15T20:02:41.688Z,37.50
2022-10-15T20:05:11.294Z,34.47
2022-10-15T20:07:40.758Z,36.40
2022-10-15T20:10:12.160Z,37.47
2022-10-15T20:12:41.762Z,33.38
2022-10-15T20:15:12.282Z,37.25
2022-10-15T20:17:41.661Z,37.35
2022-10-15T20:20:11.177Z,36.83
2022-10-15T20:22:40.383Z,40.15
2022-10-15T20:25:11.951Z,44.08
2022-10-15T20:27:41.389Z,33.92
2022-10-15T20:30:12.189Z,39.80
2022-10-15T20:32:43.422Z,37.05
2022-10-15T20:35:12.864Z,39.55
2022-10-15T20:37:42.167Z,38.08
2022-10-15T20:40:13.544Z,34.95
2022-10-15T20:42:42.916Z,39.33
2022-10-15T20:45:14.662Z,40.22
2022-10-15T20:47:48.349Z,42.28
2022-10-15T20:50:22.402Z,40.95
2022-10-15T20:52:51.781Z,37.72
2022-10-15T20:55:22.985Z,37.35
2022-10-15T20:57:52.657Z,40.83
2022-10-15T21:00:22.152Z,40.15
2022-10-15T21:02:51.316Z,40.22
2022-10-15T21:05:20.803Z,42.92
2022-10-15T21:07:50.170Z,41.65
2022-10-15T21:10:21.128Z,38.80
2022-10-15T21:12:50.451Z,36.10
2022-10-15T21:15:20.417Z,35.35
2022-10-15T21:17:49.705Z,35.13
2022-10-15T21:20:19.233Z,35.70
2022-10-15T21:22:48.503Z,37.38
2022-10-15T21:25:18.140Z,33.40
2022-10-15T21:27:48.750Z,31.85
2022-10-15T21:30:18.428Z,36.67
2022-10-15T21:32:47.964Z,35.97
2022-10-15T21:35:17.536Z,39.90
2022-10-15T21:37:46.685Z,39.00
2022-10-15T21:40:16.219Z,36.45
2022-10-15T21:42:45.434Z,41.97
2022-10-15T21:45:16.358Z,39.42
2022-10-15T21:47:45.561Z,41.35
2022-10-15T21:50:15.005Z,44.90
2022-10-15T21:52:44.292Z,54.42
2022-10-15T21:55:13.899Z,46.92
2022-10-15T21:57:43.070Z,45.80
2022-10-15T22:00:17.635Z,45.08
2022-10-15T22:02:51.641Z,39.95
2022-10-15T22:05:21.143Z,41.58
2022-10-15T22:07:50.298Z,44.17
2022-10-15T22:10:19.809Z,42.42
2022-10-15T22:12:53.504Z,42.92
2022-10-15T22:15:24.267Z,43.58
2022-10-15T22:17:53.424Z,46.47
2022-10-15T22:20:23.831Z,43.63
2022-10-15T22:22:54.680Z,42.83
2022-10-15T22:25:24.233Z,41.00
2022-10-15T22:27:53.435Z,36.03
2022-10-15T22:30:24.208Z,39.42
2022-10-15T22:32:54.329Z,33.92
2022-10-15T22:35:23.773Z,37.95
2022-10-15T22:37:55.214Z,33.85
2022-10-15T22:40:25.436Z,36.97
2022-10-15T22:42:54.631Z,36.22
2022-10-15T22:45:25.395Z,33.72
2022-10-15T22:47:54.728Z,33.85
2022-10-15T22:50:24.473Z,33.13
2022-10-15T22:52:53.698Z,36.50
2022-10-15T22:55:23.109Z,33.03
2022-10-15T22:57:53.034Z,30.58
2022-10-15T23:00:24.242Z,31.17
2022-10-15T23:02:53.660Z,34.97
2022-10-15T23:05:23.070Z,32.55
2022-10-15T23:07:52.375Z,31.85
2022-10-15T23:10:21.844Z,31.98
2022-10-15T23:12:51.055Z,33.45
2022-10-15T23:15:20.694Z,33.13
2022-10-15T23:17:51.268Z,31.33
2022-10-15T23:20:20.660Z,32.30
2022-10-15T23:22:50.009Z,30.33
2022-10-15T23:25:19.430Z,31.50
2022-10-15T23:27:48.820Z,31.77
2022-10-15T23:30:24.620Z,31.67
2022-10-15T23:32:55.782Z,30.48
2022-10-15T23:35:25.242Z,28.02
2022-10-15T23:37:54.568Z,30.73
2022-10-15T23:40:24.032Z,29.65
2022-10-15T23:42:53.195Z,30.73
2022-10-15T23:45:22.598Z,31.60
2022-10-15T23:47:51.789Z,31.45
2022-10-15T23:50:22.707Z,32.50
2022-10-15T23:52:51.902Z,33.45
2022-10-15T23:55:21.425Z,36.42
2022-10-15T23:57:50.893Z,33.92
